Terminal Aerodrome Forecast
Issued by NWS Albany, NY

Home | Current Version | Previous Version | Text Only | Print | Product List | Glossary On
Versions: 1 2 3 4 5 6 7 8 9 10 11 12 13 14 15 16 17 18 19
000
FTUS41 KALY 270545
TAFALB
TAF
KALB 270545Z 2706/2806 36007KT P6SM SCT025 OVC110
      TEMPO 2706/2708 BKN025 OVC050
     FM270800 35006KT P6SM BKN050 BKN110
     FM271100 35006KT P6SM SCT050
     FM271700 31008KT P6SM BKN050
     FM272300 30008KT P6SM SCT050
     FM280200 29006KT P6SM SKC=

USA.gov is the U.S. government's official web portal to all federal, state and local government web resources and services.